Startpagina
METAR-TAF:

METAR-TAF

Vliegvelden :

Logroño, Spanje

breedte: 42-27N, lengte: 002-20W, hoogte: 353 m

Actueel weer

Dit bericht is 43 minuten geleden gemaakt, om 20:30 UTC
Wind 2 kt uit het westnoordwesten
Temperatuur 7°C
Vochtigheid 81%
Druk 1032 hPa
Zicht 10 km of meer
geen wolken onder 1500 m en geen cumulonimbus

METAR: LELO 232030Z 30002KT CAVOK 07/04 Q1032

Tijdstip: 22:13 (21:13 UTC)

Verwachting

Dit bericht is 4 uur en het 13 minuten geleden gemaakt, om 17:00 UTC
Verwachting geldig van 23 om 18 UTC tot 24 om 03 UTC
Wind 5 kt uit variabele richting
Zicht 10 km of meer
geen wolken onder 1500 m en geen cumulonimbus

TAF: LELO 231700Z 2318/2403 VRB05KT CAVOK

Waarnemingen en weersverwachtingen van meer dan 4000 vliegvelden (METAR en TAF).

De beschikbare stations zijn de gele en rode punten op de kaart.

Ga met uw muis naar het station om de naam te zien.

Klik dan om waarnemingen en weersverwachtingen te zien.

kaart wijzigen: klik op de groene knoppen met een zwart kruis om in te zoomen, op de groene knop met een streepje om uit te zoomen of op de groene pijlen voor aangrenzende kaarten.


METAR-TAF: